This is the latest recevied weather packets stored in our database for station/object JF7BTK-10. If no packets are shown the sender has not sent any weather packets the latest 10 day(s).
| Time | Temp. | Humidity | Pressure | Rain* | Wind** | Luminosity | Snow |
|---|---|---|---|---|---|---|---|
| 1777964499 | 18.89° C | 50% | 1010.4 hPa | 0 mm | - | - | - |
| 1777963598 | 18.33° C | 51% | 1010.4 hPa | 0 mm | - | - | - |
| 1777962699 | 18.33° C | 52% | 1010 hPa | 0 mm | - | - | - |
| 1777961800 | 18.33° C | 50% | 1010.2 hPa | 0 mm | - | - | - |
| 1777960900 | 18.33° C | 50% | 1010.1 hPa | 0 mm | - | - | - |
| 1777959999 | 18.89° C | 44% | 1010 hPa | 0 mm | - | - | - |
| 1777959099 | 18.89° C | 44% | 1010 hPa | 0 mm | - | - | - |
| 1777958199 | 18.89° C | 44% | 1009.9 hPa | 0 mm | - | - | - |
| 1777957299 | 18.89° C | 45% | 1010 hPa | 0 mm | - | - | - |
| 1777956400 | 18.89° C | 42% | 1009.8 hPa | 0 mm | - | - | - |
| 1777955499 | 18.89° C | 47% | 1009.8 hPa | 0 mm | - | - | - |
| 1777954600 | 18.33° C | 51% | 1009.7 hPa | 0 mm | - | - | - |
| 1777952800 | 18.33° C | 48% | 1009.4 hPa | 0 mm | - | - | - |
| 1777951900 | 18.33° C | 50% | 1009.4 hPa | 0 mm | - | - | - |
| 1777950999 | 17.78° C | 50% | 1009.5 hPa | 0 mm | - | - | - |
| 1777950098 | 17.78° C | 51% | 1009.4 hPa | 0 mm | - | - | - |
| 1777949200 | 17.78° C | 44% | 1009.4 hPa | 0 mm | - | - | - |
| 1777948299 | 17.22° C | 49% | 1009.5 hPa | 0 mm | - | - | - |
| 1777946499 | 16.67° C | 55% | 1009.7 hPa | 0 mm | - | - | - |
| 1777945599 | 16.11° C | 60% | 1009.9 hPa | 0 mm | - | - | - |
| 1777944699 | 15.56° C | 61% | 1009.8 hPa | 0 mm | - | - | - |
| 1777943799 | 15° C | 62% | 1009.8 hPa | 0 mm | - | - | - |
| 1777942900 | 15° C | 63% | 1009.9 hPa | 0 mm | - | - | - |
| 1777942000 | 13.89° C | 64% | 1010.1 hPa | 0 mm | - | - | - |
| 1777941100 | 13.89° C | 66% | 1010.1 hPa | 0 mm | - | - | - |
* Rain latest hour (hover to see other rain measurements)
** Current wind speed in m/s (hover to see current wind gust speed)